sensor_id;sensor_type;location;lat;lon;timestamp;P1;P2;P0
70436;PMS5003;57877;39.750;-104.894;2023-10-08T00:00:18;0;0;
70436;PMS5003;57877;39.750;-104.894;2023-10-08T00:02:44;0;0;
70436;PMS5003;57877;39.750;-104.894;2023-10-08T00:05:10;0;0;
70436;PMS5003;57877;39.750;-104.894;2023-10-08T00:07:36;0;0;
70436;PMS5003;57877;39.750;-104.894;2023-10-08T00:10:02;0;0;
70436;PMS5003;57877;39.750;-104.894;2023-10-08T00:12:28;0;0;
70436;PMS5003;57877;39.750;-104.894;2023-10-08T00:14:56;0;0;
70436;PMS5003;57877;39.750;-104.894;2023-10-08T00:17:20;0;0;
70436;PMS5003;57877;39.750;-104.894;2023-10-08T00:19:46;0;0;
70436;PMS5003;57877;39.750;-104.894;2023-10-08T00:22:12;0;0;
70436;PMS5003;57877;39.750;-104.894;2023-10-08T00:24:38;0;0;
70436;PMS5003;57877;39.750;-104.894;2023-10-08T00:27:04;0;0;
70436;PMS5003;57877;39.750;-104.894;2023-10-08T00:29:30;3;3;
70436;PMS5003;57877;39.750;-104.894;2023-10-08T00:31:56;3;3;
70436;PMS5003;57877;39.750;-104.894;2023-10-08T00:34:22;1;1;
70436;PMS5003;57877;39.750;-104.894;2023-10-08T00:36:48;3;3;
70436;PMS5003;57877;39.750;-104.894;2023-10-08T00:39:14;2;1;
70436;PMS5003;57877;39.750;-104.894;2023-10-08T00:41:41;2;2;
70436;PMS5003;57877;39.750;-104.894;2023-10-08T00:44:07;1;1;
70436;PMS5003;57877;39.750;-104.894;2023-10-08T00:46:32;1;1;
70436;PMS5003;57877;39.750;-104.894;2023-10-08T00:48:59;0;0;
70436;PMS5003;57877;39.750;-104.894;2023-10-08T00:51:24;0;0;
70436;PMS5003;57877;39.750;-104.894;2023-10-08T00:53:51;0;0;
70436;PMS5003;57877;39.750;-104.894;2023-10-08T00:56:16;0;0;
70436;PMS5003;57877;39.750;-104.894;2023-10-08T00:58:42;2;2;
70436;PMS5003;57877;39.750;-104.894;2023-10-08T01:01:08;3;3;
70436;PMS5003;57877;39.750;-104.894;2023-10-08T01:03:34;1;1;
70436;PMS5003;57877;39.750;-104.894;2023-10-08T01:06:00;1;1;
70436;PMS5003;57877;39.750;-104.894;2023-10-08T01:08:26;0;0;
70436;PMS5003;57877;39.750;-104.894;2023-10-08T01:10:52;0;0;
70436;PMS5003;57877;39.750;-104.894;2023-10-08T01:13:18;0;0;
70436;PMS5003;57877;39.750;-104.894;2023-10-08T01:15:44;0;0;
70436;PMS5003;57877;39.750;-104.894;2023-10-08T01:18:10;3;1;
70436;PMS5003;57877;39.750;-104.894;2023-10-08T01:20:36;0;0;
70436;PMS5003;57877;39.750;-104.894;2023-10-08T01:23:02;1;1;
70436;PMS5003;57877;39.750;-104.894;2023-10-08T01:25:28;1;1;
70436;PMS5003;57877;39.750;-104.894;2023-10-08T01:27:55;0;0;
70436;PMS5003;57877;39.750;-104.894;2023-10-08T01:30:19;2;2;
70436;PMS5003;57877;39.750;-104.894;2023-10-08T01:32:45;4;2;
70436;PMS5003;57877;39.750;-104.894;2023-10-08T01:35:11;7;6;
70436;PMS5003;57877;39.750;-104.894;2023-10-08T01:37:37;2;2;
70436;PMS5003;57877;39.750;-104.894;2023-10-08T01:40:04;2;2;
70436;PMS5003;57877;39.750;-104.894;2023-10-08T01:42:29;4;4;
70436;PMS5003;57877;39.750;-104.894;2023-10-08T01:44:55;1;1;
70436;PMS5003;57877;39.750;-104.894;2023-10-08T01:47:21;6;5;
70436;PMS5003;57877;39.750;-104.894;2023-10-08T01:49:47;4;3;
70436;PMS5003;57877;39.750;-104.894;2023-10-08T01:52:13;3;2;
70436;PMS5003;57877;39.750;-104.894;2023-10-08T01:54:39;1;1;
70436;PMS5003;57877;39.750;-104.894;2023-10-08T01:57:05;2;2;
70436;PMS5003;57877;39.750;-104.894;2023-10-08T01:59:31;4;4;
70436;PMS5003;57877;39.750;-104.894;2023-10-08T02:01:57;6;5;
70436;PMS5003;57877;39.750;-104.894;2023-10-08T02:04:23;3;3;
70436;PMS5003;57877;39.750;-104.894;2023-10-08T02:06:49;10;9;
70436;PMS5003;57877;39.750;-104.894;2023-10-08T02:09:15;30;29;
70436;PMS5003;57877;39.750;-104.894;2023-10-08T02:11:41;35;33;
70436;PMS5003;57877;39.750;-104.894;2023-10-08T02:14:06;36;33;
70436;PMS5003;57877;39.750;-104.894;2023-10-08T02:16:32;36;34;
70436;PMS5003;57877;39.750;-104.894;2023-10-08T02:18:58;27;27;
70436;PMS5003;57877;39.750;-104.894;2023-10-08T02:21:24;24;23;
70436;PMS5003;57877;39.750;-104.894;2023-10-08T02:23:50;24;23;
70436;PMS5003;57877;39.750;-104.894;2023-10-08T02:26:16;26;23;
70436;PMS5003;57877;39.750;-104.894;2023-10-08T02:28:42;23;23;
70436;PMS5003;57877;39.750;-104.894;2023-10-08T02:31:08;25;21;
70436;PMS5003;57877;39.750;-104.894;2023-10-08T02:33:34;22;21;
70436;PMS5003;57877;39.750;-104.894;2023-10-08T02:36:01;25;22;
70436;PMS5003;57877;39.750;-104.894;2023-10-08T02:38:26;23;23;
70436;PMS5003;57877;39.750;-104.894;2023-10-08T02:40:52;20;20;
70436;PMS5003;57877;39.750;-104.894;2023-10-08T02:43:18;23;23;
70436;PMS5003;57877;39.750;-104.894;2023-10-08T02:45:44;23;21;
70436;PMS5003;57877;39.750;-104.894;2023-10-08T02:48:10;23;21;
70436;PMS5003;57877;39.750;-104.894;2023-10-08T02:50:35;20;19;
70436;PMS5003;57877;39.750;-104.894;2023-10-08T02:53:01;24;21;
70436;PMS5003;57877;39.750;-104.894;2023-10-08T02:55:27;21;20;
70436;PMS5003;57877;39.750;-104.894;2023-10-08T02:57:53;21;20;
70436;PMS5003;57877;39.750;-104.894;2023-10-08T03:00:19;20;19;
70436;PMS5003;57877;39.750;-104.894;2023-10-08T03:02:45;19;19;
70436;PMS5003;57877;39.750;-104.894;2023-10-08T03:05:11;20;19;
70436;PMS5003;57877;39.750;-104.894;2023-10-08T03:07:37;18;18;
70436;PMS5003;57877;39.750;-104.894;2023-10-08T03:10:03;19;19;
70436;PMS5003;57877;39.750;-104.894;2023-10-08T03:12:29;16;12;
70436;PMS5003;57877;39.750;-104.894;2023-10-08T03:14:55;18;15;
70436;PMS5003;57877;39.750;-104.894;2023-10-08T03:17:21;16;14;
70436;PMS5003;57877;39.750;-104.894;2023-10-08T03:19:47;17;17;
70436;PMS5003;57877;39.750;-104.894;2023-10-08T03:22:13;16;15;
70436;PMS5003;57877;39.750;-104.894;2023-10-08T03:24:39;13;11;
70436;PMS5003;57877;39.750;-104.894;2023-10-08T03:27:05;19;18;
70436;PMS5003;57877;39.750;-104.894;2023-10-08T03:29:31;14;12;
70436;PMS5003;57877;39.750;-104.894;2023-10-08T03:31:57;16;14;
70436;PMS5003;57877;39.750;-104.894;2023-10-08T03:34:23;11;10;
70436;PMS5003;57877;39.750;-104.894;2023-10-08T03:36:49;8;8;
70436;PMS5003;57877;39.750;-104.894;2023-10-08T03:39:15;8;8;
70436;PMS5003;57877;39.750;-104.894;2023-10-08T03:41:41;9;9;
70436;PMS5003;57877;39.750;-104.894;2023-10-08T03:44:07;14;13;
70436;PMS5003;57877;39.750;-104.894;2023-10-08T03:46:33;11;10;
70436;PMS5003;57877;39.750;-104.894;2023-10-08T03:48:59;19;18;
70436;PMS5003;57877;39.750;-104.894;2023-10-08T03:51:25;19;17;
70436;PMS5003;57877;39.750;-104.894;2023-10-08T03:53:51;20;20;
70436;PMS5003;57877;39.750;-104.894;2023-10-08T03:56:17;15;14;
70436;PMS5003;57877;39.750;-104.894;2023-10-08T03:58:43;16;15;
70436;PMS5003;57877;39.750;-104.894;2023-10-08T04:01:09;16;15;
70436;PMS5003;57877;39.750;-104.894;2023-10-08T04:03:35;17;15;
70436;PMS5003;57877;39.750;-104.894;2023-10-08T04:06:01;16;12;
70436;PMS5003;57877;39.750;-104.894;2023-10-08T04:08:27;14;14;
70436;PMS5003;57877;39.750;-104.894;2023-10-08T04:10:52;14;10;
70436;PMS5003;57877;39.750;-104.894;2023-10-08T04:13:17;16;16;
70436;PMS5003;57877;39.750;-104.894;2023-10-08T04:15:43;12;11;
70436;PMS5003;57877;39.750;-104.894;2023-10-08T04:18:09;13;12;
70436;PMS5003;57877;39.750;-104.894;2023-10-08T04:20:35;12;12;
70436;PMS5003;57877;39.750;-104.894;2023-10-08T04:23:01;11;11;
70436;PMS5003;57877;39.750;-104.894;2023-10-08T04:25:27;12;8;
70436;PMS5003;57877;39.750;-104.894;2023-10-08T04:27:53;11;11;
70436;PMS5003;57877;39.750;-104.894;2023-10-08T04:30:19;8;8;
70436;PMS5003;57877;39.750;-104.894;2023-10-08T04:32:45;8;6;
70436;PMS5003;57877;39.750;-104.894;2023-10-08T04:35:11;9;9;
70436;PMS5003;57877;39.750;-104.894;2023-10-08T04:37:37;7;7;
70436;PMS5003;57877;39.750;-104.894;2023-10-08T04:40:03;8;7;
70436;PMS5003;57877;39.750;-104.894;2023-10-08T04:42:29;10;10;
70436;PMS5003;57877;39.750;-104.894;2023-10-08T04:44:55;9;8;
70436;PMS5003;57877;39.750;-104.894;2023-10-08T04:47:21;11;11;
70436;PMS5003;57877;39.750;-104.894;2023-10-08T04:49:47;15;14;
70436;PMS5003;57877;39.750;-104.894;2023-10-08T04:52:13;11;9;
70436;PMS5003;57877;39.750;-104.894;2023-10-08T04:54:39;15;12;
70436;PMS5003;57877;39.750;-104.894;2023-10-08T04:57:05;11;11;
70436;PMS5003;57877;39.750;-104.894;2023-10-08T04:59:31;11;9;
70436;PMS5003;57877;39.750;-104.894;2023-10-08T05:01:57;14;13;
70436;PMS5003;57877;39.750;-104.894;2023-10-08T05:04:23;13;11;
70436;PMS5003;57877;39.750;-104.894;2023-10-08T05:06:49;12;10;
70436;PMS5003;57877;39.750;-104.894;2023-10-08T05:09:15;12;10;
70436;PMS5003;57877;39.750;-104.894;2023-10-08T05:11:41;12;9;
70436;PMS5003;57877;39.750;-104.894;2023-10-08T05:14:07;10;10;
70436;PMS5003;57877;39.750;-104.894;2023-10-08T05:16:33;8;8;
70436;PMS5003;57877;39.750;-104.894;2023-10-08T05:18:59;10;9;
70436;PMS5003;57877;39.750;-104.894;2023-10-08T05:21:25;8;7;
70436;PMS5003;57877;39.750;-104.894;2023-10-08T05:23:51;8;8;
70436;PMS5003;57877;39.750;-104.894;2023-10-08T05:26:17;10;10;
70436;PMS5003;57877;39.750;-104.894;2023-10-08T05:28:43;11;10;
70436;PMS5003;57877;39.750;-104.894;2023-10-08T05:31:09;9;9;
70436;PMS5003;57877;39.750;-104.894;2023-10-08T05:33:35;12;12;
70436;PMS5003;57877;39.750;-104.894;2023-10-08T05:36:01;9;8;
70436;PMS5003;57877;39.750;-104.894;2023-10-08T05:38:27;10;10;
70436;PMS5003;57877;39.750;-104.894;2023-10-08T05:40:53;10;8;
70436;PMS5003;57877;39.750;-104.894;2023-10-08T05:43:19;11;10;
70436;PMS5003;57877;39.750;-104.894;2023-10-08T05:45:45;8;8;
70436;PMS5003;57877;39.750;-104.894;2023-10-08T05:48:10;11;10;
70436;PMS5003;57877;39.750;-104.894;2023-10-08T05:50:35;7;6;
70436;PMS5003;57877;39.750;-104.894;2023-10-08T05:53:01;5;5;
70436;PMS5003;57877;39.750;-104.894;2023-10-08T05:55:28;5;5;
70436;PMS5003;57877;39.750;-104.894;2023-10-08T05:57:53;4;4;
70436;PMS5003;57877;39.750;-104.894;2023-10-08T06:00:19;5;4;
70436;PMS5003;57877;39.750;-104.894;2023-10-08T06:02:45;6;5;
70436;PMS5003;57877;39.750;-104.894;2023-10-08T06:05:11;5;5;
70436;PMS5003;57877;39.750;-104.894;2023-10-08T06:07:37;6;5;
70436;PMS5003;57877;39.750;-104.894;2023-10-08T06:10:03;6;6;
70436;PMS5003;57877;39.750;-104.894;2023-10-08T06:12:29;3;3;
70436;PMS5003;57877;39.750;-104.894;2023-10-08T06:14:55;4;4;
70436;PMS5003;57877;39.750;-104.894;2023-10-08T06:17:21;5;5;
70436;PMS5003;57877;39.750;-104.894;2023-10-08T06:19:47;4;4;
70436;PMS5003;57877;39.750;-104.894;2023-10-08T06:22:12;5;5;
70436;PMS5003;57877;39.750;-104.894;2023-10-08T06:24:38;6;5;
70436;PMS5003;57877;39.750;-104.894;2023-10-08T06:27:04;3;3;
70436;PMS5003;57877;39.750;-104.894;2023-10-08T06:29:30;3;2;
70436;PMS5003;57877;39.750;-104.894;2023-10-08T06:31:56;2;1;
70436;PMS5003;57877;39.750;-104.894;2023-10-08T06:34:22;3;2;
70436;PMS5003;57877;39.750;-104.894;2023-10-08T06:36:48;2;2;
70436;PMS5003;57877;39.750;-104.894;2023-10-08T06:39:14;2;2;
70436;PMS5003;57877;39.750;-104.894;2023-10-08T06:41:40;2;2;
70436;PMS5003;57877;39.750;-104.894;2023-10-08T06:44:06;3;3;
70436;PMS5003;57877;39.750;-104.894;2023-10-08T06:46:32;5;5;
70436;PMS5003;57877;39.750;-104.894;2023-10-08T06:48:58;6;6;
70436;PMS5003;57877;39.750;-104.894;2023-10-08T06:51:24;5;5;
70436;PMS5003;57877;39.750;-104.894;2023-10-08T06:53:50;4;4;
70436;PMS5003;57877;39.750;-104.894;2023-10-08T06:56:16;6;6;
70436;PMS5003;57877;39.750;-104.894;2023-10-08T06:58:42;6;6;
70436;PMS5003;57877;39.750;-104.894;2023-10-08T07:01:08;5;4;
70436;PMS5003;57877;39.750;-104.894;2023-10-08T07:03:35;4;4;
70436;PMS5003;57877;39.750;-104.894;2023-10-08T07:06:00;7;7;
70436;PMS5003;57877;39.750;-104.894;2023-10-08T07:08:27;4;3;
70436;PMS5003;57877;39.750;-104.894;2023-10-08T07:10:52;4;4;
70436;PMS5003;57877;39.750;-104.894;2023-10-08T07:13:18;3;3;
70436;PMS5003;57877;39.750;-104.894;2023-10-08T07:15:44;2;2;
70436;PMS5003;57877;39.750;-104.894;2023-10-08T07:18:10;3;3;
70436;PMS5003;57877;39.750;-104.894;2023-10-08T07:20:37;1;1;
70436;PMS5003;57877;39.750;-104.894;2023-10-08T07:23:02;2;2;
70436;PMS5003;57877;39.750;-104.894;2023-10-08T07:25:28;1;1;
70436;PMS5003;57877;39.750;-104.894;2023-10-08T07:27:54;1;1;
70436;PMS5003;57877;39.750;-104.894;2023-10-08T07:30:20;3;3;
70436;PMS5003;57877;39.750;-104.894;2023-10-08T07:32:46;3;3;
70436;PMS5003;57877;39.750;-104.894;2023-10-08T07:35:12;2;2;
70436;PMS5003;57877;39.750;-104.894;2023-10-08T07:37:38;3;3;
70436;PMS5003;57877;39.750;-104.894;2023-10-08T07:40:05;6;6;
70436;PMS5003;57877;39.750;-104.894;2023-10-08T07:42:30;8;8;
70436;PMS5003;57877;39.750;-104.894;2023-10-08T07:44:56;8;8;
70436;PMS5003;57877;39.750;-104.894;2023-10-08T07:47:22;2;2;
70436;PMS5003;57877;39.750;-104.894;2023-10-08T07:49:48;2;2;
70436;PMS5003;57877;39.750;-104.894;2023-10-08T07:52:14;11;10;
70436;PMS5003;57877;39.750;-104.894;2023-10-08T07:54:40;14;13;
70436;PMS5003;57877;39.750;-104.894;2023-10-08T07:57:06;11;11;
70436;PMS5003;57877;39.750;-104.894;2023-10-08T07:59:30;7;7;
70436;PMS5003;57877;39.750;-104.894;2023-10-08T08:01:55;4;4;
70436;PMS5003;57877;39.750;-104.894;2023-10-08T08:04:20;6;6;
70436;PMS5003;57877;39.750;-104.894;2023-10-08T08:06:45;2;2;
70436;PMS5003;57877;39.750;-104.894;2023-10-08T08:09:10;0;0;
70436;PMS5003;57877;39.750;-104.894;2023-10-08T08:11:36;2;2;
70436;PMS5003;57877;39.750;-104.894;2023-10-08T08:14:01;1;0;
70436;PMS5003;57877;39.750;-104.894;2023-10-08T08:16:26;3;2;
70436;PMS5003;57877;39.750;-104.894;2023-10-08T08:18:51;1;1;
70436;PMS5003;57877;39.750;-104.894;2023-10-08T08:21:16;1;1;
70436;PMS5003;57877;39.750;-104.894;2023-10-08T08:23:41;3;3;
70436;PMS5003;57877;39.750;-104.894;2023-10-08T08:26:07;1;1;
70436;PMS5003;57877;39.750;-104.894;2023-10-08T08:28:33;1;1;
70436;PMS5003;57877;39.750;-104.894;2023-10-08T08:31:02;2;2;
70436;PMS5003;57877;39.750;-104.894;2023-10-08T08:33:24;2;2;
70436;PMS5003;57877;39.750;-104.894;2023-10-08T08:38:15;2;2;
70436;PMS5003;57877;39.750;-104.894;2023-10-08T08:40:41;1;1;
70436;PMS5003;57877;39.750;-104.894;2023-10-08T08:43:07;1;1;
70436;PMS5003;57877;39.750;-104.894;2023-10-08T08:45:33;1;0;
70436;PMS5003;57877;39.750;-104.894;2023-10-08T08:47:58;0;0;
70436;PMS5003;57877;39.750;-104.894;2023-10-08T08:50:24;2;2;
70436;PMS5003;57877;39.750;-104.894;2023-10-08T08:52:50;1;1;
70436;PMS5003;57877;39.750;-104.894;2023-10-08T08:55:16;1;1;
70436;PMS5003;57877;39.750;-104.894;2023-10-08T08:57:43;0;0;
70436;PMS5003;57877;39.750;-104.894;2023-10-08T09:00:08;2;2;
70436;PMS5003;57877;39.750;-104.894;2023-10-08T09:02:34;1;1;
70436;PMS5003;57877;39.750;-104.894;2023-10-08T09:05:00;0;0;
70436;PMS5003;57877;39.750;-104.894;2023-10-08T09:07:26;0;0;
70436;PMS5003;57877;39.750;-104.894;2023-10-08T09:09:52;0;0;
70436;PMS5003;57877;39.750;-104.894;2023-10-08T09:12:18;2;2;
70436;PMS5003;57877;39.750;-104.894;2023-10-08T09:14:44;0;0;
70436;PMS5003;57877;39.750;-104.894;2023-10-08T09:17:10;2;1;
70436;PMS5003;57877;39.750;-104.894;2023-10-08T09:19:36;1;1;
70436;PMS5003;57877;39.750;-104.894;2023-10-08T09:22:03;1;1;
70436;PMS5003;57877;39.750;-104.894;2023-10-08T09:24:28;0;0;
70436;PMS5003;57877;39.750;-104.894;2023-10-08T09:26:54;0;0;
70436;PMS5003;57877;39.750;-104.894;2023-10-08T09:29:22;0;0;
70436;PMS5003;57877;39.750;-104.894;2023-10-08T09:34:12;0;0;
70436;PMS5003;57877;39.750;-104.894;2023-10-08T09:36:38;0;0;
70436;PMS5003;57877;39.750;-104.894;2023-10-08T09:39:04;1;1;
70436;PMS5003;57877;39.750;-104.894;2023-10-08T09:41:31;1;1;
70436;PMS5003;57877;39.750;-104.894;2023-10-08T09:43:56;2;2;
70436;PMS5003;57877;39.750;-104.894;2023-10-08T09:46:23;0;0;
70436;PMS5003;57877;39.750;-104.894;2023-10-08T09:48:49;1;0;
70436;PMS5003;57877;39.750;-104.894;2023-10-08T09:51:14;1;1;
70436;PMS5003;57877;39.750;-104.894;2023-10-08T09:53:42;2;2;
70436;PMS5003;57877;39.750;-104.894;2023-10-08T09:56:07;0;0;
70436;PMS5003;57877;39.750;-104.894;2023-10-08T09:58:32;2;1;
70436;PMS5003;57877;39.750;-104.894;2023-10-08T10:00:58;0;0;
70436;PMS5003;57877;39.750;-104.894;2023-10-08T10:03:24;1;1;
70436;PMS5003;57877;39.750;-104.894;2023-10-08T10:05:50;0;0;
70436;PMS5003;57877;39.750;-104.894;2023-10-08T10:08:15;1;1;
70436;PMS5003;57877;39.750;-104.894;2023-10-08T10:10:41;0;0;
70436;PMS5003;57877;39.750;-104.894;2023-10-08T10:13:09;0;0;
70436;PMS5003;57877;39.750;-104.894;2023-10-08T10:15:33;0;0;
70436;PMS5003;57877;39.750;-104.894;2023-10-08T10:20:25;1;1;
70436;PMS5003;57877;39.750;-104.894;2023-10-08T10:22:51;0;0;
70436;PMS5003;57877;39.750;-104.894;2023-10-08T10:25:17;0;0;
70436;PMS5003;57877;39.750;-104.894;2023-10-08T10:30:09;0;0;
70436;PMS5003;57877;39.750;-104.894;2023-10-08T10:32:35;0;0;
70436;PMS5003;57877;39.750;-104.894;2023-10-08T10:35:02;0;0;
70436;PMS5003;57877;39.750;-104.894;2023-10-08T10:37:27;1;1;
70436;PMS5003;57877;39.750;-104.894;2023-10-08T10:39:53;0;0;
70436;PMS5003;57877;39.750;-104.894;2023-10-08T10:42:17;0;0;
70436;PMS5003;57877;39.750;-104.894;2023-10-08T10:44:42;0;0;
70436;PMS5003;57877;39.750;-104.894;2023-10-08T10:47:08;1;1;
70436;PMS5003;57877;39.750;-104.894;2023-10-08T10:49:34;1;0;
70436;PMS5003;57877;39.750;-104.894;2023-10-08T10:52:00;0;0;
70436;PMS5003;57877;39.750;-104.894;2023-10-08T10:54:26;0;0;
70436;PMS5003;57877;39.750;-104.894;2023-10-08T10:56:52;1;1;
70436;PMS5003;57877;39.750;-104.894;2023-10-08T10:59:18;0;0;
70436;PMS5003;57877;39.750;-104.894;2023-10-08T11:01:46;0;0;
70436;PMS5003;57877;39.750;-104.894;2023-10-08T11:04:10;1;0;
70436;PMS5003;57877;39.750;-104.894;2023-10-08T11:06:36;0;0;
70436;PMS5003;57877;39.750;-104.894;2023-10-08T11:09:02;0;0;
70436;PMS5003;57877;39.750;-104.894;2023-10-08T11:11:28;0;0;
70436;PMS5003;57877;39.750;-104.894;2023-10-08T11:13:56;0;0;
70436;PMS5003;57877;39.750;-104.894;2023-10-08T11:16:22;0;0;
70436;PMS5003;57877;39.750;-104.894;2023-10-08T11:18:45;0;0;
70436;PMS5003;57877;39.750;-104.894;2023-10-08T11:21:12;1;1;
70436;PMS5003;57877;39.750;-104.894;2023-10-08T11:23:37;1;0;
70436;PMS5003;57877;39.750;-104.894;2023-10-08T11:26:03;0;0;
70436;PMS5003;57877;39.750;-104.894;2023-10-08T11:28:28;0;0;
70436;PMS5003;57877;39.750;-104.894;2023-10-08T11:30:55;0;0;
70436;PMS5003;57877;39.750;-104.894;2023-10-08T11:33:20;0;0;
70436;PMS5003;57877;39.750;-104.894;2023-10-08T11:38:12;0;0;
70436;PMS5003;57877;39.750;-104.894;2023-10-08T11:40:38;0;0;
70436;PMS5003;57877;39.750;-104.894;2023-10-08T11:43:04;0;0;
70436;PMS5003;57877;39.750;-104.894;2023-10-08T11:45:31;0;0;
70436;PMS5003;57877;39.750;-104.894;2023-10-08T11:47:57;0;0;
70436;PMS5003;57877;39.750;-104.894;2023-10-08T11:50:23;1;0;
70436;PMS5003;57877;39.750;-104.894;2023-10-08T11:52:49;0;0;
70436;PMS5003;57877;39.750;-104.894;2023-10-08T11:55:15;0;0;
70436;PMS5003;57877;39.750;-104.894;2023-10-08T11:57:41;1;1;
70436;PMS5003;57877;39.750;-104.894;2023-10-08T12:00:07;1;0;
70436;PMS5003;57877;39.750;-104.894;2023-10-08T12:02:32;1;0;
70436;PMS5003;57877;39.750;-104.894;2023-10-08T12:04:57;0;0;
70436;PMS5003;57877;39.750;-104.894;2023-10-08T12:07:23;0;0;
70436;PMS5003;57877;39.750;-104.894;2023-10-08T12:09:49;0;0;
70436;PMS5003;57877;39.750;-104.894;2023-10-08T12:12:14;0;0;
70436;PMS5003;57877;39.750;-104.894;2023-10-08T12:14:39;2;1;
70436;PMS5003;57877;39.750;-104.894;2023-10-08T12:17:04;0;0;
70436;PMS5003;57877;39.750;-104.894;2023-10-08T12:19:29;0;0;
70436;PMS5003;57877;39.750;-104.894;2023-10-08T12:21:54;1;0;
70436;PMS5003;57877;39.750;-104.894;2023-10-08T12:24:19;1;0;
70436;PMS5003;57877;39.750;-104.894;2023-10-08T12:26:44;0;0;
70436;PMS5003;57877;39.750;-104.894;2023-10-08T12:29:09;0;0;
70436;PMS5003;57877;39.750;-104.894;2023-10-08T12:31:34;0;0;
70436;PMS5003;57877;39.750;-104.894;2023-10-08T12:33:59;0;0;
70436;PMS5003;57877;39.750;-104.894;2023-10-08T12:36:25;1;1;
70436;PMS5003;57877;39.750;-104.894;2023-10-08T12:38:50;2;2;
70436;PMS5003;57877;39.750;-104.894;2023-10-08T12:41:15;1;1;
70436;PMS5003;57877;39.750;-104.894;2023-10-08T12:43:43;0;0;
70436;PMS5003;57877;39.750;-104.894;2023-10-08T12:46:07;0;0;
70436;PMS5003;57877;39.750;-104.894;2023-10-08T12:48:33;0;0;
70436;PMS5003;57877;39.750;-104.894;2023-10-08T12:50:59;0;0;
70436;PMS5003;57877;39.750;-104.894;2023-10-08T12:53:25;0;0;
70436;PMS5003;57877;39.750;-104.894;2023-10-08T12:55:51;1;0;
70436;PMS5003;57877;39.750;-104.894;2023-10-08T12:58:17;0;0;
70436;PMS5003;57877;39.750;-104.894;2023-10-08T13:00:43;1;0;
70436;PMS5003;57877;39.750;-104.894;2023-10-08T13:03:09;1;0;
70436;PMS5003;57877;39.750;-104.894;2023-10-08T13:05:35;0;0;
70436;PMS5003;57877;39.750;-104.894;2023-10-08T13:08:01;0;0;
70436;PMS5003;57877;39.750;-104.894;2023-10-08T13:10:27;2;2;
70436;PMS5003;57877;39.750;-104.894;2023-10-08T13:12:53;3;2;
70436;PMS5003;57877;39.750;-104.894;2023-10-08T13:15:19;0;0;
70436;PMS5003;57877;39.750;-104.894;2023-10-08T13:17:44;2;2;
70436;PMS5003;57877;39.750;-104.894;2023-10-08T13:20:10;1;1;
70436;PMS5003;57877;39.750;-104.894;2023-10-08T13:22:36;1;1;
70436;PMS5003;57877;39.750;-104.894;2023-10-08T13:25:02;0;0;
70436;PMS5003;57877;39.750;-104.894;2023-10-08T13:27:28;1;1;
70436;PMS5003;57877;39.750;-104.894;2023-10-08T13:29:54;1;1;
70436;PMS5003;57877;39.750;-104.894;2023-10-08T13:32:20;1;1;
70436;PMS5003;57877;39.750;-104.894;2023-10-08T13:34:46;0;0;
70436;PMS5003;57877;39.750;-104.894;2023-10-08T13:37:12;2;2;
70436;PMS5003;57877;39.750;-104.894;2023-10-08T13:39:38;1;1;
70436;PMS5003;57877;39.750;-104.894;2023-10-08T13:42:04;0;0;
70436;PMS5003;57877;39.750;-104.894;2023-10-08T13:44:30;0;0;
70436;PMS5003;57877;39.750;-104.894;2023-10-08T13:46:56;0;0;
70436;PMS5003;57877;39.750;-104.894;2023-10-08T13:49:22;0;0;
70436;PMS5003;57877;39.750;-104.894;2023-10-08T13:51:48;0;0;
70436;PMS5003;57877;39.750;-104.894;2023-10-08T13:54:14;0;0;
70436;PMS5003;57877;39.750;-104.894;2023-10-08T13:56:40;0;0;
70436;PMS5003;57877;39.750;-104.894;2023-10-08T13:59:06;0;0;
70436;PMS5003;57877;39.750;-104.894;2023-10-08T14:01:33;0;0;
70436;PMS5003;57877;39.750;-104.894;2023-10-08T14:03:58;0;0;
70436;PMS5003;57877;39.750;-104.894;2023-10-08T14:06:23;0;0;
70436;PMS5003;57877;39.750;-104.894;2023-10-08T14:08:48;0;0;
70436;PMS5003;57877;39.750;-104.894;2023-10-08T14:11:14;0;0;
70436;PMS5003;57877;39.750;-104.894;2023-10-08T14:13:39;0;0;
70436;PMS5003;57877;39.750;-104.894;2023-10-08T14:16:05;0;0;
70436;PMS5003;57877;39.750;-104.894;2023-10-08T14:18:31;0;0;
70436;PMS5003;57877;39.750;-104.894;2023-10-08T14:20:57;0;0;
70436;PMS5003;57877;39.750;-104.894;2023-10-08T14:23:23;0;0;
70436;PMS5003;57877;39.750;-104.894;2023-10-08T14:25:49;0;0;
70436;PMS5003;57877;39.750;-104.894;2023-10-08T14:28:15;0;0;
70436;PMS5003;57877;39.750;-104.894;2023-10-08T14:30:41;1;0;
70436;PMS5003;57877;39.750;-104.894;2023-10-08T14:33:07;0;0;
70436;PMS5003;57877;39.750;-104.894;2023-10-08T14:35:33;0;0;
70436;PMS5003;57877;39.750;-104.894;2023-10-08T14:42:51;0;0;
70436;PMS5003;57877;39.750;-104.894;2023-10-08T14:50:09;0;0;
70436;PMS5003;57877;39.750;-104.894;2023-10-08T14:52:35;0;0;
70436;PMS5003;57877;39.750;-104.894;2023-10-08T14:55:01;0;0;
70436;PMS5003;57877;39.750;-104.894;2023-10-08T14:57:27;0;0;
70436;PMS5003;57877;39.750;-104.894;2023-10-08T14:59:52;0;0;
70436;PMS5003;57877;39.750;-104.894;2023-10-08T15:02:18;0;0;
70436;PMS5003;57877;39.750;-104.894;2023-10-08T15:04:44;0;0;
70436;PMS5003;57877;39.750;-104.894;2023-10-08T15:07:10;0;0;
70436;PMS5003;57877;39.750;-104.894;2023-10-08T15:09:37;0;0;
70436;PMS5003;57877;39.750;-104.894;2023-10-08T15:12:02;0;0;
70436;PMS5003;57877;39.750;-104.894;2023-10-08T15:14:28;0;0;
70436;PMS5003;57877;39.750;-104.894;2023-10-08T15:16:54;0;0;
70436;PMS5003;57877;39.750;-104.894;2023-10-08T15:19:21;0;0;
70436;PMS5003;57877;39.750;-104.894;2023-10-08T15:21:46;0;0;
70436;PMS5003;57877;39.750;-104.894;2023-10-08T15:24:10;0;0;
70436;PMS5003;57877;39.750;-104.894;2023-10-08T15:26:35;0;0;
70436;PMS5003;57877;39.750;-104.894;2023-10-08T15:29:00;0;0;
70436;PMS5003;57877;39.750;-104.894;2023-10-08T15:31:26;0;0;
70436;PMS5003;57877;39.750;-104.894;2023-10-08T15:33:51;0;0;
70436;PMS5003;57877;39.750;-104.894;2023-10-08T15:36:16;0;0;
70436;PMS5003;57877;39.750;-104.894;2023-10-08T15:38:41;0;0;
70436;PMS5003;57877;39.750;-104.894;2023-10-08T15:41:06;0;0;
70436;PMS5003;57877;39.750;-104.894;2023-10-08T15:43:31;0;0;
70436;PMS5003;57877;39.750;-104.894;2023-10-08T15:45:56;0;0;
70436;PMS5003;57877;39.750;-104.894;2023-10-08T15:48:21;0;0;
70436;PMS5003;57877;39.750;-104.894;2023-10-08T15:50:46;0;0;
70436;PMS5003;57877;39.750;-104.894;2023-10-08T15:53:11;0;0;
70436;PMS5003;57877;39.750;-104.894;2023-10-08T15:55:36;0;0;
70436;PMS5003;57877;39.750;-104.894;2023-10-08T15:58:01;0;0;
70436;PMS5003;57877;39.750;-104.894;2023-10-08T16:00:26;0;0;
70436;PMS5003;57877;39.750;-104.894;2023-10-08T16:02:51;0;0;
70436;PMS5003;57877;39.750;-104.894;2023-10-08T16:05:16;0;0;